Strona główna
METAR-TAF:

METAR-TAF

Lotnisko :

Port lotniczy Gibraltar

Gibraltar, Gibraltar

Szerokość geograficzna: 36-09N, Długość geograficzna: 005-21W, wysokość: 5 m

Aktualna obserwacja pogody

Raport powstał 34 minut temu, godzina 09:20 UTC
Wiatr 5 kt od zachód
Temperatura 10°C
Wilgotność 76%
Ciśnienie 1013 hPa
Widzialność 10 km lub więcej
Rozproszone chmury na wysokości 5000 ft

METAR: LXGB 210920Z 26005KT 9999 SCT050 10/06 Q1013 NOSIG RMK BLU BLU

czas: 10:54 (09:54 UTC)

Prognoza

Raport powstał 2 godziny i 25 minut temu, godzina 07:29 UTC
Prognoza ważna od 21 godzina 09 UTC do 21 godzina 18 UTC
Wiatr 12 kt od zachód
Widzialność 10 km lub więcej
Mało chmury na wysokości 3000 ft

TAF: LXGB 210729Z 2109/2118 27012KT 9999 FEW030

Obserwacja i prognoza pogody dla ponad 4000 lotnisk (raport METAR i TAF).

Dostępne stacje oznaczono żółtymi i czerwonymi punktami na mapie.

Najedź kursorem aby zobaczyć nazwę stacji.

Kliknij aby zobaczyć obserwacje i prognozy pogody.

Aby zmienić mapę: kliknij na zielony przycisk z czarnym krzyżykiem, aby powiększyć; na zielony przycisk z myślnikiem, aby pomniejszyć; na zielone strzałki, aby przejść do map sąsiednich.


METAR-TAF: